<?xml version="1.0" encoding="utf-8"?>
<gpx xmlns:xsi="http://www.w3.org/2001/XMLSchema-instance" xmlns:xsd="http://www.w3.org/2001/XMLSchema" version="1.1" creator="Shapelink.com" xmlns="http://www.topografix.com/GPX/1/1" xmlns:gpxtpx="http://www.garmin.com/xmlschemas/TrackPointExtension/v1">
  <metadata>
    <name>Løping 2.53 km, 2012-03-20</name>
    <desc></desc>
    <author><name>Mikael Blom</name></author> 
    <time>2012-03-20T15:17:31Z</time>
  </metadata>
  <trk>
    <name>Løping 2.53 km, 2012-03-20</name>
    <trkseg>
      <trkpt lat="59.9835153" lon="17.7381158">
        <ele>15.999</ele>
        <time>2012-03-20T15:17:31Z</time>
      </trkpt>
      <trkpt lat="59.983591" lon="17.738066">
        <ele>14.0764</ele>
        <time>2012-03-20T15:17:35Z</time>
      </trkpt>
      <trkpt lat="59.9836215" lon="17.7380635">
        <ele>13.5958</ele>
        <time>2012-03-20T15:17:36Z</time>
      </trkpt>
      <trkpt lat="59.9838207" lon="17.7380277">
        <ele>12.1538</ele>
        <time>2012-03-20T15:17:43Z</time>
      </trkpt>
      <trkpt lat="59.9839467" lon="17.7380142">
        <ele>12.1538</ele>
        <time>2012-03-20T15:17:47Z</time>
      </trkpt>
      <trkpt lat="59.9840679" lon="17.738013">
        <ele>11.6732</ele>
        <time>2012-03-20T15:17:51Z</time>
      </trkpt>
      <trkpt lat="59.9841416" lon="17.7380261">
        <ele>11.6732</ele>
        <time>2012-03-20T15:17:55Z</time>
      </trkpt>
      <trkpt lat="59.9841996" lon="17.7380401">
        <ele>12.1538</ele>
        <time>2012-03-20T15:17:58Z</time>
      </trkpt>
      <trkpt lat="59.9842887" lon="17.7380464">
        <ele>10.7118</ele>
        <time>2012-03-20T15:18:03Z</time>
      </trkpt>
      <trkpt lat="59.9843663" lon="17.7380603">
        <ele>11.1925</ele>
        <time>2012-03-20T15:18:06Z</time>
      </trkpt>
      <trkpt lat="59.9845423" lon="17.7381117">
        <ele>10.2312</ele>
        <time>2012-03-20T15:18:13Z</time>
      </trkpt>
      <trkpt lat="59.9845746" lon="17.7381322">
        <ele>9.75061</ele>
        <time>2012-03-20T15:18:15Z</time>
      </trkpt>
      <trkpt lat="59.9846818" lon="17.7381654">
        <ele>9.2699</ele>
        <time>2012-03-20T15:18:20Z</time>
      </trkpt>
      <trkpt lat="59.9848117" lon="17.7381884">
        <ele>10.7118</ele>
        <time>2012-03-20T15:18:25Z</time>
      </trkpt>
      <trkpt lat="59.9848999" lon="17.7382096">
        <ele>8.78918</ele>
        <time>2012-03-20T15:18:29Z</time>
      </trkpt>
      <trkpt lat="59.9849671" lon="17.7382235">
        <ele>7.82788</ele>
        <time>2012-03-20T15:18:33Z</time>
      </trkpt>
      <trkpt lat="59.98502" lon="17.7382328">
        <ele>7.82788</ele>
        <time>2012-03-20T15:18:36Z</time>
      </trkpt>
      <trkpt lat="59.9851608" lon="17.7382758">
        <ele>6.86646</ele>
        <time>2012-03-20T15:18:42Z</time>
      </trkpt>
      <trkpt lat="59.985219" lon="17.738295">
        <ele>6.38586</ele>
        <time>2012-03-20T15:18:45Z</time>
      </trkpt>
      <trkpt lat="59.9853175" lon="17.7383436">
        <ele>6.38586</ele>
        <time>2012-03-20T15:18:50Z</time>
      </trkpt>
      <trkpt lat="59.9853883" lon="17.7383712">
        <ele>7.34717</ele>
        <time>2012-03-20T15:18:53Z</time>
      </trkpt>
      <trkpt lat="59.9855889" lon="17.738421">
        <ele>8.30859</ele>
        <time>2012-03-20T15:18:59Z</time>
      </trkpt>
      <trkpt lat="59.985684" lon="17.7384784">
        <ele>6.86646</ele>
        <time>2012-03-20T15:19:04Z</time>
      </trkpt>
      <trkpt lat="59.9858007" lon="17.7385513">
        <ele>4.94385</ele>
        <time>2012-03-20T15:19:10Z</time>
      </trkpt>
      <trkpt lat="59.9859005" lon="17.738637">
        <ele>5.42456</ele>
        <time>2012-03-20T15:19:15Z</time>
      </trkpt>
      <trkpt lat="59.9860037" lon="17.7386981">
        <ele>5.42456</ele>
        <time>2012-03-20T15:19:20Z</time>
      </trkpt>
      <trkpt lat="59.9861098" lon="17.7387413">
        <ele>5.90527</ele>
        <time>2012-03-20T15:19:24Z</time>
      </trkpt>
      <trkpt lat="59.9862196" lon="17.7388151">
        <ele>7.34717</ele>
        <time>2012-03-20T15:19:28Z</time>
      </trkpt>
      <trkpt lat="59.9862587" lon="17.7388577">
        <ele>8.30859</ele>
        <time>2012-03-20T15:19:30Z</time>
      </trkpt>
      <trkpt lat="59.9863453" lon="17.7389392">
        <ele>8.78918</ele>
        <time>2012-03-20T15:19:34Z</time>
      </trkpt>
      <trkpt lat="59.9864822" lon="17.739049">
        <ele>10.2312</ele>
        <time>2012-03-20T15:19:40Z</time>
      </trkpt>
      <trkpt lat="59.9865812" lon="17.7391171">
        <ele>10.2312</ele>
        <time>2012-03-20T15:19:44Z</time>
      </trkpt>
      <trkpt lat="59.9867299" lon="17.7392495">
        <ele>11.1925</ele>
        <time>2012-03-20T15:19:51Z</time>
      </trkpt>
      <trkpt lat="59.986818" lon="17.7393196">
        <ele>10.2312</ele>
        <time>2012-03-20T15:19:55Z</time>
      </trkpt>
      <trkpt lat="59.9868892" lon="17.7393653">
        <ele>11.1925</ele>
        <time>2012-03-20T15:19:59Z</time>
      </trkpt>
      <trkpt lat="59.9869725" lon="17.7393967">
        <ele>11.1925</ele>
        <time>2012-03-20T15:20:04Z</time>
      </trkpt>
      <trkpt lat="59.9870933" lon="17.7394108">
        <ele>11.1925</ele>
        <time>2012-03-20T15:20:09Z</time>
      </trkpt>
      <trkpt lat="59.987148" lon="17.7394082">
        <ele>12.1538</ele>
        <time>2012-03-20T15:20:11Z</time>
      </trkpt>
      <trkpt lat="59.9872692" lon="17.7393678">
        <ele>13.5958</ele>
        <time>2012-03-20T15:20:16Z</time>
      </trkpt>
      <trkpt lat="59.9874157" lon="17.739348">
        <ele>13.5958</ele>
        <time>2012-03-20T15:20:21Z</time>
      </trkpt>
      <trkpt lat="59.9875293" lon="17.7393305">
        <ele>15.0377</ele>
        <time>2012-03-20T15:20:25Z</time>
      </trkpt>
      <trkpt lat="59.9876661" lon="17.7393388">
        <ele>15.999</ele>
        <time>2012-03-20T15:20:30Z</time>
      </trkpt>
      <trkpt lat="59.98777" lon="17.7392961">
        <ele>15.999</ele>
        <time>2012-03-20T15:20:35Z</time>
      </trkpt>
      <trkpt lat="59.9878786" lon="17.7392756">
        <ele>17.9218</ele>
        <time>2012-03-20T15:20:40Z</time>
      </trkpt>
      <trkpt lat="59.9879774" lon="17.7392677">
        <ele>18.8831</ele>
        <time>2012-03-20T15:20:45Z</time>
      </trkpt>
      <trkpt lat="59.9881016" lon="17.7392294">
        <ele>19.3638</ele>
        <time>2012-03-20T15:20:50Z</time>
      </trkpt>
      <trkpt lat="59.9881598" lon="17.7391673">
        <ele>21.2864</ele>
        <time>2012-03-20T15:20:53Z</time>
      </trkpt>
      <trkpt lat="59.9882717" lon="17.7391373">
        <ele>21.767</ele>
        <time>2012-03-20T15:20:58Z</time>
      </trkpt>
      <trkpt lat="59.9883047" lon="17.7391203">
        <ele>21.767</ele>
        <time>2012-03-20T15:21:00Z</time>
      </trkpt>
      <trkpt lat="59.9884234" lon="17.7390414">
        <ele>23.209</ele>
        <time>2012-03-20T15:21:06Z</time>
      </trkpt>
      <trkpt lat="59.9885325" lon="17.7389879">
        <ele>23.209</ele>
        <time>2012-03-20T15:21:11Z</time>
      </trkpt>
      <trkpt lat="59.9885995" lon="17.7389278">
        <ele>25.1317</ele>
        <time>2012-03-20T15:21:14Z</time>
      </trkpt>
      <trkpt lat="59.9887607" lon="17.7388454">
        <ele>27.0543</ele>
        <time>2012-03-20T15:21:20Z</time>
      </trkpt>
      <trkpt lat="59.9887867" lon="17.738828">
        <ele>26.5736</ele>
        <time>2012-03-20T15:21:21Z</time>
      </trkpt>
      <trkpt lat="59.9889414" lon="17.7386954">
        <ele>28.4962</ele>
        <time>2012-03-20T15:21:27Z</time>
      </trkpt>
      <trkpt lat="59.9890589" lon="17.7386185">
        <ele>31.3801</ele>
        <time>2012-03-20T15:21:31Z</time>
      </trkpt>
      <trkpt lat="59.9891569" lon="17.7386014">
        <ele>30.8995</ele>
        <time>2012-03-20T15:21:35Z</time>
      </trkpt>
      <trkpt lat="59.98925" lon="17.7385258">
        <ele>31.8607</ele>
        <time>2012-03-20T15:21:40Z</time>
      </trkpt>
      <trkpt lat="59.9893083" lon="17.7384702">
        <ele>32.8223</ele>
        <time>2012-03-20T15:21:43Z</time>
      </trkpt>
      <trkpt lat="59.9893564" lon="17.7384367">
        <ele>32.3416</ele>
        <time>2012-03-20T15:21:46Z</time>
      </trkpt>
      <trkpt lat="59.9895245" lon="17.7384167">
        <ele>32.3416</ele>
        <time>2012-03-20T15:21:52Z</time>
      </trkpt>
      <trkpt lat="59.9896256" lon="17.7383768">
        <ele>33.3029</ele>
        <time>2012-03-20T15:21:56Z</time>
      </trkpt>
      <trkpt lat="59.989739" lon="17.7383365">
        <ele>31.3801</ele>
        <time>2012-03-20T15:22:01Z</time>
      </trkpt>
      <trkpt lat="59.989823" lon="17.7382842">
        <ele>32.3416</ele>
        <time>2012-03-20T15:22:05Z</time>
      </trkpt>
      <trkpt lat="59.9899644" lon="17.7382103">
        <ele>32.8223</ele>
        <time>2012-03-20T15:22:10Z</time>
      </trkpt>
      <trkpt lat="59.9899897" lon="17.7382003">
        <ele>32.3416</ele>
        <time>2012-03-20T15:22:11Z</time>
      </trkpt>
      <trkpt lat="59.9901285" lon="17.7381658">
        <ele>28.4962</ele>
        <time>2012-03-20T15:22:17Z</time>
      </trkpt>
      <trkpt lat="59.9902618" lon="17.7381146">
        <ele>29.4575</ele>
        <time>2012-03-20T15:22:22Z</time>
      </trkpt>
      <trkpt lat="59.990394" lon="17.7380551">
        <ele>28.4962</ele>
        <time>2012-03-20T15:22:27Z</time>
      </trkpt>
      <trkpt lat="59.9905456" lon="17.7380106">
        <ele>28.0155</ele>
        <time>2012-03-20T15:22:32Z</time>
      </trkpt>
      <trkpt lat="59.9906535" lon="17.7379318">
        <ele>28.0155</ele>
        <time>2012-03-20T15:22:37Z</time>
      </trkpt>
      <trkpt lat="59.9907678" lon="17.7378403">
        <ele>30.8995</ele>
        <time>2012-03-20T15:22:41Z</time>
      </trkpt>
      <trkpt lat="59.9908586" lon="17.7377915">
        <ele>30.4188</ele>
        <time>2012-03-20T15:22:45Z</time>
      </trkpt>
      <trkpt lat="59.9909851" lon="17.7377304">
        <ele>30.4188</ele>
        <time>2012-03-20T15:22:49Z</time>
      </trkpt>
      <trkpt lat="59.9910949" lon="17.7376818">
        <ele>31.3801</ele>
        <time>2012-03-20T15:22:53Z</time>
      </trkpt>
      <trkpt lat="59.9912678" lon="17.7376429">
        <ele>29.4575</ele>
        <time>2012-03-20T15:23:00Z</time>
      </trkpt>
      <trkpt lat="59.9914014" lon="17.7376447">
        <ele>27.5349</ele>
        <time>2012-03-20T15:23:05Z</time>
      </trkpt>
      <trkpt lat="59.9915553" lon="17.7376349">
        <ele>27.5349</ele>
        <time>2012-03-20T15:23:11Z</time>
      </trkpt>
      <trkpt lat="59.9916421" lon="17.7376283">
        <ele>27.5349</ele>
        <time>2012-03-20T15:23:15Z</time>
      </trkpt>
      <trkpt lat="59.9917779" lon="17.7376153">
        <ele>25.1317</ele>
        <time>2012-03-20T15:23:20Z</time>
      </trkpt>
      <trkpt lat="59.9918991" lon="17.7375979">
        <ele>23.6896</ele>
        <time>2012-03-20T15:23:25Z</time>
      </trkpt>
      <trkpt lat="59.9920376" lon="17.7375506">
        <ele>23.6896</ele>
        <time>2012-03-20T15:23:30Z</time>
      </trkpt>
      <trkpt lat="59.9920795" lon="17.7375019">
        <ele>24.651</ele>
        <time>2012-03-20T15:23:32Z</time>
      </trkpt>
      <trkpt lat="59.9922506" lon="17.7373608">
        <ele>25.6123</ele>
        <time>2012-03-20T15:23:39Z</time>
      </trkpt>
      <trkpt lat="59.9922919" lon="17.7373532">
        <ele>26.0929</ele>
        <time>2012-03-20T15:23:40Z</time>
      </trkpt>
      <trkpt lat="59.9923462" lon="17.7374281">
        <ele>27.0543</ele>
        <time>2012-03-20T15:23:44Z</time>
      </trkpt>
      <trkpt lat="59.9922881" lon="17.737506">
        <ele>26.0929</ele>
        <time>2012-03-20T15:23:46Z</time>
      </trkpt>
      <trkpt lat="59.9920795" lon="17.7376835">
        <ele>23.209</ele>
        <time>2012-03-20T15:23:51Z</time>
      </trkpt>
      <trkpt lat="59.9919732" lon="17.7377371">
        <ele>23.6896</ele>
        <time>2012-03-20T15:23:55Z</time>
      </trkpt>
      <trkpt lat="59.9918618" lon="17.737793">
        <ele>22.7283</ele>
        <time>2012-03-20T15:24:00Z</time>
      </trkpt>
      <trkpt lat="59.9917149" lon="17.7378551">
        <ele>19.3638</ele>
        <time>2012-03-20T15:24:05Z</time>
      </trkpt>
      <trkpt lat="59.9916267" lon="17.7378516">
        <ele>18.8831</ele>
        <time>2012-03-20T15:24:10Z</time>
      </trkpt>
      <trkpt lat="59.9914973" lon="17.7378371">
        <ele>19.8444</ele>
        <time>2012-03-20T15:24:16Z</time>
      </trkpt>
      <trkpt lat="59.9913748" lon="17.7378338">
        <ele>18.8831</ele>
        <time>2012-03-20T15:24:21Z</time>
      </trkpt>
      <trkpt lat="59.9913049" lon="17.7378509">
        <ele>17.4412</ele>
        <time>2012-03-20T15:24:23Z</time>
      </trkpt>
      <trkpt lat="59.9911724" lon="17.7378887">
        <ele>16.4797</ele>
        <time>2012-03-20T15:24:28Z</time>
      </trkpt>
      <trkpt lat="59.9910306" lon="17.7379022">
        <ele>15.0377</ele>
        <time>2012-03-20T15:24:32Z</time>
      </trkpt>
      <trkpt lat="59.9908758" lon="17.737979">
        <ele>12.6344</ele>
        <time>2012-03-20T15:24:37Z</time>
      </trkpt>
      <trkpt lat="59.9907826" lon="17.7380328">
        <ele>11.1925</ele>
        <time>2012-03-20T15:24:42Z</time>
      </trkpt>
      <trkpt lat="59.990716" lon="17.7380862">
        <ele>10.2312</ele>
        <time>2012-03-20T15:24:45Z</time>
      </trkpt>
      <trkpt lat="59.9907167" lon="17.7380862">
        <ele>11.1925</ele>
        <time>2012-03-20T15:24:46Z</time>
      </trkpt>
      <trkpt lat="59.9906703" lon="17.7381105">
        <ele>11.1925</ele>
        <time>2012-03-20T15:24:51Z</time>
      </trkpt>
      <trkpt lat="59.9905605" lon="17.7381789">
        <ele>11.6732</ele>
        <time>2012-03-20T15:24:55Z</time>
      </trkpt>
      <trkpt lat="59.9904358" lon="17.7382396">
        <ele>12.1538</ele>
        <time>2012-03-20T15:24:59Z</time>
      </trkpt>
      <trkpt lat="59.9902886" lon="17.7383229">
        <ele>11.1925</ele>
        <time>2012-03-20T15:25:05Z</time>
      </trkpt>
      <trkpt lat="59.9902005" lon="17.7383727">
        <ele>10.7118</ele>
        <time>2012-03-20T15:25:09Z</time>
      </trkpt>
      <trkpt lat="59.9900993" lon="17.7383925">
        <ele>9.75061</ele>
        <time>2012-03-20T15:25:15Z</time>
      </trkpt>
      <trkpt lat="59.9899883" lon="17.7384329">
        <ele>9.2699</ele>
        <time>2012-03-20T15:25:19Z</time>
      </trkpt>
      <trkpt lat="59.9898561" lon="17.738482">
        <ele>9.2699</ele>
        <time>2012-03-20T15:25:24Z</time>
      </trkpt>
      <trkpt lat="59.9896839" lon="17.7386104">
        <ele>7.34717</ele>
        <time>2012-03-20T15:25:28Z</time>
      </trkpt>
      <trkpt lat="59.989553" lon="17.7387192">
        <ele>7.82788</ele>
        <time>2012-03-20T15:25:32Z</time>
      </trkpt>
      <trkpt lat="59.9894517" lon="17.7387494">
        <ele>8.30859</ele>
        <time>2012-03-20T15:25:36Z</time>
      </trkpt>
      <trkpt lat="59.9893485" lon="17.7387415">
        <ele>9.75061</ele>
        <time>2012-03-20T15:25:41Z</time>
      </trkpt>
      <trkpt lat="59.9892751" lon="17.7387379">
        <ele>10.7118</ele>
        <time>2012-03-20T15:25:45Z</time>
      </trkpt>
      <trkpt lat="59.9891168" lon="17.7387855">
        <ele>8.30859</ele>
        <time>2012-03-20T15:25:50Z</time>
      </trkpt>
      <trkpt lat="59.9892088" lon="17.7387368">
        <ele>27.5349</ele>
        <time>2012-03-20T15:25:51Z</time>
      </trkpt>
      <trkpt lat="59.9891194" lon="17.7388089">
        <ele>51.0872</ele>
        <time>2012-03-20T15:25:57Z</time>
      </trkpt>
      <trkpt lat="59.9889749" lon="17.7389066">
        <ele>59.2584</ele>
        <time>2012-03-20T15:26:03Z</time>
      </trkpt>
      <trkpt lat="59.9888663" lon="17.7389886">
        <ele>60.7003</ele>
        <time>2012-03-20T15:26:08Z</time>
      </trkpt>
      <trkpt lat="59.9887891" lon="17.7390513">
        <ele>60.2197</ele>
        <time>2012-03-20T15:26:12Z</time>
      </trkpt>
      <trkpt lat="59.9886836" lon="17.7391304">
        <ele>59.2584</ele>
        <time>2012-03-20T15:26:17Z</time>
      </trkpt>
      <trkpt lat="59.9886079" lon="17.7391731">
        <ele>59.2584</ele>
        <time>2012-03-20T15:26:21Z</time>
      </trkpt>
      <trkpt lat="59.9884816" lon="17.7392472">
        <ele>57.3358</ele>
        <time>2012-03-20T15:26:27Z</time>
      </trkpt>
      <trkpt lat="59.9884022" lon="17.7393004">
        <ele>58.2971</ele>
        <time>2012-03-20T15:26:31Z</time>
      </trkpt>
      <trkpt lat="59.9883005" lon="17.7393138">
        <ele>58.7777</ele>
        <time>2012-03-20T15:26:36Z</time>
      </trkpt>
      <trkpt lat="59.9882224" lon="17.7393269">
        <ele>58.2971</ele>
        <time>2012-03-20T15:26:39Z</time>
      </trkpt>
      <trkpt lat="59.9881157" lon="17.7393819">
        <ele>57.3358</ele>
        <time>2012-03-20T15:26:44Z</time>
      </trkpt>
      <trkpt lat="59.9879696" lon="17.7394414">
        <ele>58.7777</ele>
        <time>2012-03-20T15:26:50Z</time>
      </trkpt>
      <trkpt lat="59.9878008" lon="17.7394776">
        <ele>58.2971</ele>
        <time>2012-03-20T15:26:56Z</time>
      </trkpt>
      <trkpt lat="59.9876806" lon="17.7394434">
        <ele>55.4131</ele>
        <time>2012-03-20T15:27:01Z</time>
      </trkpt>
      <trkpt lat="59.9875733" lon="17.7394332">
        <ele>53.4905</ele>
        <time>2012-03-20T15:27:06Z</time>
      </trkpt>
      <trkpt lat="59.9874169" lon="17.739477">
        <ele>53.0098</ele>
        <time>2012-03-20T15:27:12Z</time>
      </trkpt>
      <trkpt lat="59.987302" lon="17.7394708">
        <ele>53.4905</ele>
        <time>2012-03-20T15:27:17Z</time>
      </trkpt>
      <trkpt lat="59.9871258" lon="17.7394995">
        <ele>54.9324</ele>
        <time>2012-03-20T15:27:23Z</time>
      </trkpt>
      <trkpt lat="59.9871009" lon="17.7394931">
        <ele>55.4131</ele>
        <time>2012-03-20T15:27:24Z</time>
      </trkpt>
      <trkpt lat="59.9869591" lon="17.7394385">
        <ele>55.4131</ele>
        <time>2012-03-20T15:27:30Z</time>
      </trkpt>
      <trkpt lat="59.9868913" lon="17.7393243">
        <ele>52.5292</ele>
        <time>2012-03-20T15:27:35Z</time>
      </trkpt>
      <trkpt lat="59.9867445" lon="17.7392016">
        <ele>51.5679</ele>
        <time>2012-03-20T15:27:41Z</time>
      </trkpt>
      <trkpt lat="59.9865846" lon="17.7390244">
        <ele>51.0872</ele>
        <time>2012-03-20T15:27:48Z</time>
      </trkpt>
      <trkpt lat="59.9865638" lon="17.7390065">
        <ele>51.0872</ele>
        <time>2012-03-20T15:27:49Z</time>
      </trkpt>
      <trkpt lat="59.9864752" lon="17.7388669">
        <ele>48.684</ele>
        <time>2012-03-20T15:27:54Z</time>
      </trkpt>
      <trkpt lat="59.9864518" lon="17.7388418">
        <ele>47.7225</ele>
        <time>2012-03-20T15:27:55Z</time>
      </trkpt>
      <trkpt lat="59.9863154" lon="17.7387395">
        <ele>45.3192</ele>
        <time>2012-03-20T15:28:01Z</time>
      </trkpt>
      <trkpt lat="59.986174" lon="17.7386706">
        <ele>45.7999</ele>
        <time>2012-03-20T15:28:06Z</time>
      </trkpt>
      <trkpt lat="59.9860063" lon="17.7385421">
        <ele>45.3192</ele>
        <time>2012-03-20T15:28:12Z</time>
      </trkpt>
      <trkpt lat="59.9859013" lon="17.7384886">
        <ele>43.3966</ele>
        <time>2012-03-20T15:28:16Z</time>
      </trkpt>
      <trkpt lat="59.985819" lon="17.7384605">
        <ele>43.3966</ele>
        <time>2012-03-20T15:28:20Z</time>
      </trkpt>
      <trkpt lat="59.9857112" lon="17.7384017">
        <ele>42.4354</ele>
        <time>2012-03-20T15:28:25Z</time>
      </trkpt>
      <trkpt lat="59.9856034" lon="17.7383447">
        <ele>42.916</ele>
        <time>2012-03-20T15:28:29Z</time>
      </trkpt>
      <trkpt lat="59.9854717" lon="17.7383134">
        <ele>42.916</ele>
        <time>2012-03-20T15:28:34Z</time>
      </trkpt>
      <trkpt lat="59.9853547" lon="17.7382586">
        <ele>44.358</ele>
        <time>2012-03-20T15:28:39Z</time>
      </trkpt>
      <trkpt lat="59.9852102" lon="17.738243">
        <ele>46.2806</ele>
        <time>2012-03-20T15:28:44Z</time>
      </trkpt>
      <trkpt lat="59.9851817" lon="17.7382503">
        <ele>46.2806</ele>
        <time>2012-03-20T15:28:45Z</time>
      </trkpt>
      <trkpt lat="59.9850133" lon="17.7382244">
        <ele>46.2806</ele>
        <time>2012-03-20T15:28:51Z</time>
      </trkpt>
      <trkpt lat="59.9848973" lon="17.738179">
        <ele>47.2418</ele>
        <time>2012-03-20T15:28:56Z</time>
      </trkpt>
      <trkpt lat="59.9847958" lon="17.7381511">
        <ele>48.2034</ele>
        <time>2012-03-20T15:29:00Z</time>
      </trkpt>
      <trkpt lat="59.9846575" lon="17.7381313">
        <ele>49.1646</ele>
        <time>2012-03-20T15:29:05Z</time>
      </trkpt>
      <trkpt lat="59.9845068" lon="17.738136">
        <ele>48.2034</ele>
        <time>2012-03-20T15:29:10Z</time>
      </trkpt>
      <trkpt lat="59.9843254" lon="17.7381477">
        <ele>49.1646</ele>
        <time>2012-03-20T15:29:15Z</time>
      </trkpt>
      <trkpt lat="59.9842099" lon="17.7381371">
        <ele>50.6066</ele>
        <time>2012-03-20T15:29:19Z</time>
      </trkpt>
      <trkpt lat="59.9840588" lon="17.7381348">
        <ele>50.126</ele>
        <time>2012-03-20T15:29:25Z</time>
      </trkpt>
      <trkpt lat="59.9839614" lon="17.7380727">
        <ele>45.7999</ele>
        <time>2012-03-20T15:29:30Z</time>
      </trkpt>
      <trkpt lat="59.9838104" lon="17.7380738">
        <ele>42.4354</ele>
        <time>2012-03-20T15:29:36Z</time>
      </trkpt>
      <trkpt lat="59.9837872" lon="17.7380703">
        <ele>41.9547</ele>
        <time>2012-03-20T15:29:37Z</time>
      </trkpt>
      <trkpt lat="59.9836105" lon="17.7381235">
        <ele>42.4354</ele>
        <time>2012-03-20T15:29:43Z</time>
      </trkpt>
      <trkpt lat="59.9834883" lon="17.738185">
        <ele>44.358</ele>
        <time>2012-03-20T15:29:47Z</time>
      </trkpt>
      <trkpt lat="59.9833444" lon="17.7382518">
        <ele>47.2418</ele>
        <time>2012-03-20T15:29:52Z</time>
      </trkpt>
      <trkpt lat="59.9832776" lon="17.7382902">
        <ele>50.126</ele>
        <time>2012-03-20T15:29:54Z</time>
      </trkpt>
      <trkpt lat="59.9831619" lon="17.7382599">
        <ele>51.5679</ele>
        <time>2012-03-20T15:29:59Z</time>
      </trkpt>
      <trkpt lat="59.9831356" lon="17.7382682">
        <ele>52.0486</ele>
        <time>2012-03-20T15:30:00Z</time>
      </trkpt>
      <trkpt lat="59.9829698" lon="17.7382919">
        <ele>56.8551</ele>
        <time>2012-03-20T15:30:06Z</time>
      </trkpt>
      <trkpt lat="59.982856" lon="17.7382288">
        <ele>57.8165</ele>
        <time>2012-03-20T15:30:11Z</time>
      </trkpt>
      <trkpt lat="59.9827479" lon="17.7382173">
        <ele>59.7391</ele>
        <time>2012-03-20T15:30:15Z</time>
      </trkpt>
      <trkpt lat="59.982634" lon="17.7382047">
        <ele>60.7003</ele>
        <time>2012-03-20T15:30:20Z</time>
      </trkpt>
      <trkpt lat="59.9825184" lon="17.738148">
        <ele>58.7777</ele>
        <time>2012-03-20T15:30:24Z</time>
      </trkpt>
      <trkpt lat="59.9823659" lon="17.7381975">
        <ele>55.8938</ele>
        <time>2012-03-20T15:30:30Z</time>
      </trkpt>
      <trkpt lat="59.9822471" lon="17.7382499">
        <ele>57.3358</ele>
        <time>2012-03-20T15:30:34Z</time>
      </trkpt>
      <trkpt lat="59.982124" lon="17.7382685">
        <ele>54.9324</ele>
        <time>2012-03-20T15:30:39Z</time>
      </trkpt>
      <trkpt lat="59.9820135" lon="17.7383411">
        <ele>54.4518</ele>
        <time>2012-03-20T15:30:43Z</time>
      </trkpt>
      <trkpt lat="59.9818699" lon="17.7384046">
        <ele>56.3745</ele>
        <time>2012-03-20T15:30:48Z</time>
      </trkpt>
      <trkpt lat="59.9817513" lon="17.7384396">
        <ele>53.4905</ele>
        <time>2012-03-20T15:30:53Z</time>
      </trkpt>
      <trkpt lat="59.9816562" lon="17.7384923">
        <ele>52.0486</ele>
        <time>2012-03-20T15:30:58Z</time>
      </trkpt>
      <trkpt lat="59.9815213" lon="17.7385607">
        <ele>48.684</ele>
        <time>2012-03-20T15:31:04Z</time>
      </trkpt>
      <trkpt lat="59.9814265" lon="17.7386064">
        <ele>47.7225</ele>
        <time>2012-03-20T15:31:08Z</time>
      </trkpt>
      <trkpt lat="59.9813284" lon="17.7386457">
        <ele>45.3192</ele>
        <time>2012-03-20T15:31:12Z</time>
      </trkpt>
      <trkpt lat="59.9812076" lon="17.7386652">
        <ele>45.3192</ele>
        <time>2012-03-20T15:31:16Z</time>
      </trkpt>
      <trkpt lat="59.981141" lon="17.7386938">
        <ele>43.3966</ele>
        <time>2012-03-20T15:31:19Z</time>
      </trkpt>
      <trkpt lat="59.981004" lon="17.7387266">
        <ele>44.358</ele>
        <time>2012-03-20T15:31:24Z</time>
      </trkpt>
      <trkpt lat="59.9809024" lon="17.7387452">
        <ele>42.4354</ele>
        <time>2012-03-20T15:31:28Z</time>
      </trkpt>
      <trkpt lat="59.9807461" lon="17.7388037">
        <ele>41.474</ele>
        <time>2012-03-20T15:31:34Z</time>
      </trkpt>
      <trkpt lat="59.9806217" lon="17.7388892">
        <ele>42.916</ele>
        <time>2012-03-20T15:31:38Z</time>
      </trkpt>
      <trkpt lat="59.9804977" lon="17.7389294">
        <ele>43.8773</ele>
        <time>2012-03-20T15:31:42Z</time>
      </trkpt>
      <trkpt lat="59.9803946" lon="17.7389472">
        <ele>42.916</ele>
        <time>2012-03-20T15:31:46Z</time>
      </trkpt>
      <trkpt lat="59.980287" lon="17.7389238">
        <ele>41.9547</ele>
        <time>2012-03-20T15:31:51Z</time>
      </trkpt>
      <trkpt lat="59.9801275" lon="17.738916">
        <ele>40.9934</ele>
        <time>2012-03-20T15:31:57Z</time>
      </trkpt>
      <trkpt lat="59.9799696" lon="17.7388416">
        <ele>39.0707</ele>
        <time>2012-03-20T15:32:03Z</time>
      </trkpt>
      <trkpt lat="59.9798461" lon="17.7388424">
        <ele>36.6675</ele>
        <time>2012-03-20T15:32:08Z</time>
      </trkpt>
      <trkpt lat="59.9797441" lon="17.738842">
        <ele>35.2255</ele>
        <time>2012-03-20T15:32:12Z</time>
      </trkpt>
      <trkpt lat="59.9796084" lon="17.7388993">
        <ele>35.7061</ele>
        <time>2012-03-20T15:32:17Z</time>
      </trkpt>
      <trkpt lat="59.9794904" lon="17.7389701">
        <ele>34.7449</ele>
        <time>2012-03-20T15:32:22Z</time>
      </trkpt>
      <trkpt lat="59.9793635" lon="17.7390668">
        <ele>32.8223</ele>
        <time>2012-03-20T15:32:28Z</time>
      </trkpt>
      <trkpt lat="59.9792607" lon="17.7391409">
        <ele>30.8995</ele>
        <time>2012-03-20T15:32:32Z</time>
      </trkpt>
      <trkpt lat="59.9791765" lon="17.739188">
        <ele>30.4188</ele>
        <time>2012-03-20T15:32:35Z</time>
      </trkpt>
      <trkpt lat="59.9790475" lon="17.739237">
        <ele>29.9381</ele>
        <time>2012-03-20T15:32:40Z</time>
      </trkpt>
      <trkpt lat="59.9790182" lon="17.7392702">
        <ele>30.8995</ele>
        <time>2012-03-20T15:32:41Z</time>
      </trkpt>
      <trkpt lat="59.9789594" lon="17.739322">
        <ele>32.8223</ele>
        <time>2012-03-20T15:32:43Z</time>
      </trkpt>
    </trkseg>
  </trk>
</gpx>